createdAt,value
2023-04-17T03:55:57.152Z,62.49
2023-04-17T03:59:00.292Z,62.95
2023-04-17T04:02:03.129Z,63.98
2023-04-17T04:05:06.639Z,61.83
2023-04-17T04:08:09.324Z,61.14
2023-04-17T04:11:12.001Z,62.18
2023-04-17T04:14:14.772Z,61.58
2023-04-17T04:17:18.655Z,60.74
2023-04-17T04:20:22.410Z,60.04
2023-04-17T04:23:27.886Z,62.38
2023-04-17T04:26:30.086Z,63.49
2023-04-17T04:29:33.880Z,60.70
2023-04-17T04:32:37.602Z,60.63
2023-04-17T04:35:41.792Z,61.68
2023-04-17T04:38:44.024Z,59.99
2023-04-17T04:41:50.540Z,59.42
2023-04-17T04:44:53.417Z,61.13
2023-04-17T04:47:56.725Z,59.58
2023-04-17T04:50:59.046Z,58.38
2023-04-17T04:54:02.218Z,58.36
2023-04-17T04:57:04.391Z,58.70
2023-04-17T05:00:08.788Z,57.92
2023-04-17T05:03:11.744Z,57.96
2023-04-17T05:06:33.070Z,58.50
2023-04-17T05:09:36.169Z,62.55
2023-04-17T05:12:39.080Z,59.01
2023-04-17T05:15:41.863Z,60.24
2023-04-17T05:18:47.802Z,58.22
2023-04-17T05:21:50.564Z,58.18
2023-04-17T05:24:53.261Z,59.68
2023-04-17T05:27:55.937Z,58.09
2023-04-17T05:30:58.976Z,58.73
2023-04-17T05:34:02.512Z,58.77
2023-04-17T05:37:04.920Z,60.64
2023-04-17T05:40:07.776Z,58.27
2023-04-17T05:43:11.513Z,58.44
2023-04-17T05:46:13.778Z,57.81
2023-04-17T05:49:18.181Z,61.47
2023-04-17T05:52:20.469Z,57.84
2023-04-17T05:55:23.724Z,57.28
2023-04-17T05:58:28.063Z,57.52
2023-04-17T06:01:31.153Z,59.11
2023-04-17T06:04:34.326Z,56.82
2023-04-17T06:07:38.434Z,56.99
2023-04-17T06:10:41.128Z,57.24
2023-04-17T06:13:43.194Z,58.07
2023-04-17T06:16:45.929Z,57.09
2023-04-17T06:19:51.633Z,56.86
2023-04-17T06:22:54.078Z,59.74
2023-04-17T06:25:58.219Z,56.53
2023-04-17T06:29:01.199Z,57.79
2023-04-17T06:32:04.825Z,58.08
2023-04-17T06:35:07.849Z,57.10
2023-04-17T06:38:12.013Z,57.14
2023-04-17T06:41:14.722Z,56.62
2023-04-17T06:44:17.191Z,55.95
2023-04-17T06:47:19.865Z,55.32
2023-04-17T06:50:22.197Z,55.11
2023-04-17T06:53:25.746Z,55.39
2023-04-17T06:56:27.894Z,55.12
2023-04-17T06:59:30.262Z,55.34
2023-04-17T07:02:32.703Z,55.67
2023-04-17T07:05:35.303Z,55.67
2023-04-17T07:08:37.500Z,55.26
2023-04-17T07:11:39.949Z,56.30
2023-04-17T07:14:42.277Z,55.82
2023-04-17T07:17:44.742Z,55.06
2023-04-17T07:20:47.340Z,54.90
2023-04-17T07:23:49.758Z,55.59
2023-04-17T07:26:51.942Z,55.03
2023-04-17T07:29:55.977Z,56.51
2023-04-17T07:32:58.216Z,55.40
2023-04-17T07:36:00.618Z,54.09
2023-04-17T07:39:04.561Z,53.58
2023-04-17T07:42:08.921Z,53.03
2023-04-17T07:45:11.550Z,53.01
2023-04-17T07:48:13.985Z,53.18
2023-04-17T07:51:16.974Z,53.30
2023-04-17T07:54:19.596Z,52.61
2023-04-17T07:57:22.115Z,55.90
2023-04-17T08:00:24.626Z,53.55
2023-04-17T08:03:27.237Z,52.98
2023-04-17T08:06:29.557Z,52.63
2023-04-17T08:09:35.696Z,53.99
2023-04-17T08:12:39.617Z,51.96
2023-04-17T08:15:42.028Z,54.18
2023-04-17T08:18:44.375Z,54.62
2023-04-17T08:21:50.708Z,53.86
2023-04-17T08:24:57.862Z,52.79
2023-04-17T08:28:00.370Z,54.55
2023-04-17T08:31:02.548Z,53.04
2023-04-17T08:34:13.810Z,52.84
2023-04-17T08:37:16.918Z,53.11
2023-04-17T08:40:23.190Z,53.05
2023-04-17T08:43:29.084Z,52.40
2023-04-17T08:46:32.194Z,52.79
2023-04-17T08:49:35.602Z,52.63
2023-04-17T08:52:45.315Z,53.33
2023-04-17T08:55:48.290Z,53.13
2023-04-17T08:58:50.660Z,55.16
2023-04-17T09:02:08.414Z,53.51
2023-04-17T09:05:19.606Z,54.73
2023-04-17T09:08:27.905Z,53.78
2023-04-17T09:11:30.632Z,52.83
2023-04-17T09:14:33.144Z,55.54
2023-04-17T09:17:37.721Z,53.75
2023-04-17T09:20:50.260Z,52.14
2023-04-17T09:23:55.421Z,52.79
2023-04-17T09:27:20.317Z,52.45
2023-04-17T09:30:26.868Z,52.15
2023-04-17T09:33:29.071Z,52.83
2023-04-17T09:36:34.021Z,52.01
2023-04-17T09:39:37.172Z,51.81
2023-04-17T09:42:54.449Z,51.06
2023-04-17T09:45:57.483Z,51.92
2023-04-17T09:49:09.438Z,51.58
2023-04-17T09:52:13.088Z,51.34
2023-04-17T09:55:16.846Z,51.36
2023-04-17T09:58:19.772Z,52.16
2023-04-17T10:01:22.469Z,54.53
2023-04-17T10:04:25.217Z,52.74
2023-04-17T10:07:27.899Z,50.30
2023-04-17T10:10:34.796Z,50.28
2023-04-17T10:13:38.750Z,50.49
2023-04-17T10:16:47.064Z,49.64
2023-04-17T10:19:49.699Z,49.65
2023-04-17T10:22:56.644Z,49.25
2023-04-17T10:26:29.737Z,50.08
2023-04-17T10:29:53.435Z,50.19
2023-04-17T10:33:19.840Z,49.57
2023-04-17T10:36:49.481Z,49.57
2023-04-17T10:40:02.175Z,48.79
2023-04-17T10:43:13.777Z,48.04
2023-04-17T10:46:16.226Z,48.13
2023-04-17T10:49:21.583Z,49.21
2023-04-17T10:52:33.315Z,50.44
2023-04-17T10:55:48.626Z,50.40
2023-04-17T10:59:05.436Z,51.56
2023-04-17T11:02:07.954Z,51.19
2023-04-17T11:05:11.063Z,48.51
2023-04-17T11:08:13.670Z,49.35
2023-04-17T11:11:23.521Z,48.13
2023-04-17T11:14:33.032Z,47.28
2023-04-17T11:17:39.136Z,48.41
2023-04-17T11:20:41.495Z,47.41
2023-04-17T11:23:52.243Z,47.19
2023-04-17T11:26:56.172Z,46.55
2023-04-17T11:29:58.546Z,46.51
2023-04-17T11:33:02.766Z,46.91
2023-04-17T11:36:08.836Z,47.45
2023-04-17T11:39:14.992Z,46.47
2023-04-17T11:42:27.068Z,46.08
2023-04-17T11:45:32.528Z,46.07
2023-04-17T11:48:35.408Z,45.73
2023-04-17T11:51:37.684Z,45.85
2023-04-17T11:54:41.491Z,45.18
2023-04-17T11:57:43.831Z,44.58
2023-04-17T12:01:04.291Z,44.99
2023-04-17T12:04:19.882Z,45.54
2023-04-17T12:07:26.216Z,44.95
2023-04-17T12:10:42.705Z,44.60
2023-04-17T12:13:45.308Z,44.89
2023-04-17T12:16:50.447Z,43.29
2023-04-17T12:19:53.580Z,45.17
2023-04-17T12:22:56.201Z,45.04
2023-04-17T12:25:58.347Z,44.74
2023-04-17T12:29:00.876Z,45.66
2023-04-17T12:32:03.129Z,45.92
2023-04-17T12:35:05.929Z,46.31
2023-04-17T12:38:09.507Z,47.07
2023-04-17T12:41:26.463Z,46.82
2023-04-17T12:44:28.592Z,47.17
2023-04-17T12:47:31.178Z,47.27
2023-04-17T12:50:36.183Z,49.64
2023-04-17T12:53:38.575Z,48.94
2023-04-17T12:56:40.785Z,46.87
2023-04-17T12:59:43.127Z,46.33
2023-04-17T13:02:45.358Z,44.99
2023-04-17T13:05:53.118Z,44.93
2023-04-17T13:08:55.278Z,45.17
2023-04-17T13:11:57.835Z,44.42
2023-04-17T13:15:00.241Z,45.72
2023-04-17T13:18:02.939Z,44.81
2023-04-17T13:21:05.422Z,46.62
2023-04-17T13:24:10.065Z,49.48
2023-04-17T13:27:12.314Z,51.32
2023-04-17T13:30:14.817Z,53.33
2023-04-17T13:33:17.381Z,53.76
2023-04-17T13:36:19.842Z,54.24
2023-04-17T13:39:21.931Z,54.49
2023-04-17T13:42:24.475Z,55.66
2023-04-17T13:45:26.626Z,57.04
2023-04-17T13:48:29.015Z,55.69
2023-04-17T13:51:33.955Z,58.72
2023-04-17T13:54:36.338Z,59.67
2023-04-17T13:57:38.571Z,62.61
2023-04-17T14:00:40.965Z,63.56
2023-04-17T14:03:45.966Z,65.67
2023-04-17T14:06:50.733Z,70.51
2023-04-17T14:09:53.206Z,72.94
2023-04-17T14:12:55.288Z,74.42
2023-04-17T14:15:57.790Z,68.48
2023-04-17T14:19:06.711Z,77.18
2023-04-17T14:22:16.189Z,72.24
2023-04-17T14:25:18.296Z,73.89
2023-04-17T14:28:21.239Z,75.04
2023-04-17T14:31:23.458Z,70.59
2023-04-17T14:34:25.809Z,67.50
2023-04-17T14:37:28.245Z,69.09
2023-04-17T14:40:31.173Z,67.52
2023-04-17T14:43:33.291Z,69.15
2023-04-17T14:46:35.966Z,69.92
2023-04-17T14:49:38.249Z,59.00
2023-04-17T14:52:40.631Z,59.34
2023-04-17T14:55:42.815Z,57.47
2023-04-17T14:58:45.327Z,55.42
2023-04-17T15:01:47.707Z,56.49
2023-04-17T15:04:51.458Z,55.42
2023-04-17T15:07:53.678Z,56.12
2023-04-17T15:10:56.103Z,56.46
2023-04-17T15:13:58.293Z,53.72
2023-04-17T15:17:02.495Z,53.16
2023-04-17T15:20:05.688Z,53.29
2023-04-17T15:23:08.073Z,56.88
2023-04-17T15:26:10.471Z,54.65
2023-04-17T15:29:12.962Z,56.05
2023-04-17T15:32:15.283Z,55.82
